sensor_id;sensor_type;location;lat;lon;timestamp;P1;durP1;ratioP1;P2;durP2;ratioP2
37237;SDS011;23129;49.662;8.448;2022-11-20T00:01:35;33.13;;;14.45;;
37237;SDS011;23129;49.662;8.448;2022-11-20T00:04:04;26.42;;;14.48;;
37237;SDS011;23129;49.662;8.448;2022-11-20T00:06:33;29.00;;;14.32;;
37237;SDS011;23129;49.662;8.448;2022-11-20T00:09:02;25.85;;;13.52;;
37237;SDS011;23129;49.662;8.448;2022-11-20T00:11:33;27.67;;;13.60;;
37237;SDS011;23129;49.662;8.448;2022-11-20T00:14:01;26.75;;;13.57;;
37237;SDS011;23129;49.662;8.448;2022-11-20T00:16:30;29.10;;;14.50;;
37237;SDS011;23129;49.662;8.448;2022-11-20T00:19:00;29.30;;;13.38;;
37237;SDS011;23129;49.662;8.448;2022-11-20T00:21:29;27.52;;;13.93;;
37237;SDS011;23129;49.662;8.448;2022-11-20T00:23:57;24.85;;;13.68;;
37237;SDS011;23129;49.662;8.448;2022-11-20T00:26:27;25.98;;;13.05;;
37237;SDS011;23129;49.662;8.448;2022-11-20T00:28:58;30.83;;;15.15;;
37237;SDS011;23129;49.662;8.448;2022-11-20T00:31:28;29.42;;;12.80;;
37237;SDS011;23129;49.662;8.448;2022-11-20T00:33:59;29.17;;;15.57;;
37237;SDS011;23129;49.662;8.448;2022-11-20T00:36:28;27.50;;;13.25;;
37237;SDS011;23129;49.662;8.448;2022-11-20T00:39:00;28.98;;;15.15;;
37237;SDS011;23129;49.662;8.448;2022-11-20T00:41:28;29.75;;;14.98;;
37237;SDS011;23129;49.662;8.448;2022-11-20T00:43:59;30.55;;;13.77;;
37237;SDS011;23129;49.662;8.448;2022-11-20T00:46:27;33.47;;;15.98;;
37237;SDS011;23129;49.662;8.448;2022-11-20T00:48:56;29.13;;;13.13;;
37237;SDS011;23129;49.662;8.448;2022-11-20T00:51:25;30.48;;;15.55;;
37237;SDS011;23129;49.662;8.448;2022-11-20T00:53:55;24.25;;;13.13;;
37237;SDS011;23129;49.662;8.448;2022-11-20T00:56:26;26.67;;;13.73;;
37237;SDS011;23129;49.662;8.448;2022-11-20T00:58:54;29.85;;;15.77;;
37237;SDS011;23129;49.662;8.448;2022-11-20T01:01:27;27.88;;;14.20;;
37237;SDS011;23129;49.662;8.448;2022-11-20T01:03:57;32.53;;;15.13;;
37237;SDS011;23129;49.662;8.448;2022-11-20T01:06:27;37.70;;;18.23;;
37237;SDS011;23129;49.662;8.448;2022-11-20T01:08:59;45.80;;;18.00;;
37237;SDS011;23129;49.662;8.448;2022-11-20T01:11:29;37.38;;;17.27;;
37237;SDS011;23129;49.662;8.448;2022-11-20T01:14:01;37.78;;;16.33;;
37237;SDS011;23129;49.662;8.448;2022-11-20T01:16:33;35.15;;;15.68;;
37237;SDS011;23129;49.662;8.448;2022-11-20T01:19:04;23.30;;;12.40;;
37237;SDS011;23129;49.662;8.448;2022-11-20T01:21:35;29.25;;;14.52;;
37237;SDS011;23129;49.662;8.448;2022-11-20T01:24:06;33.67;;;14.40;;
37237;SDS011;23129;49.662;8.448;2022-11-20T01:26:39;30.88;;;15.00;;
37237;SDS011;23129;49.662;8.448;2022-11-20T01:29:09;31.38;;;15.77;;
37237;SDS011;23129;49.662;8.448;2022-11-20T01:31:42;28.75;;;14.32;;
37237;SDS011;23129;49.662;8.448;2022-11-20T01:34:12;30.52;;;13.95;;
37237;SDS011;23129;49.662;8.448;2022-11-20T01:36:42;33.65;;;15.27;;
37237;SDS011;23129;49.662;8.448;2022-11-20T01:39:12;28.08;;;13.10;;
37237;SDS011;23129;49.662;8.448;2022-11-20T01:41:44;30.25;;;14.63;;
37237;SDS011;23129;49.662;8.448;2022-11-20T01:44:52;28.50;;;13.48;;
37237;SDS011;23129;49.662;8.448;2022-11-20T01:47:34;23.88;;;13.50;;
37237;SDS011;23129;49.662;8.448;2022-11-20T01:50:09;24.35;;;12.93;;
37237;SDS011;23129;49.662;8.448;2022-11-20T01:52:42;38.38;;;14.48;;
37237;SDS011;23129;49.662;8.448;2022-11-20T01:55:17;31.85;;;14.00;;
37237;SDS011;23129;49.662;8.448;2022-11-20T01:57:49;33.72;;;15.55;;
37237;SDS011;23129;49.662;8.448;2022-11-20T02:00:18;29.23;;;13.65;;
37237;SDS011;23129;49.662;8.448;2022-11-20T02:02:51;25.48;;;12.82;;
37237;SDS011;23129;49.662;8.448;2022-11-20T02:05:27;27.23;;;14.48;;
37237;SDS011;23129;49.662;8.448;2022-11-20T02:08:00;26.65;;;13.32;;
37237;SDS011;23129;49.662;8.448;2022-11-20T02:10:32;23.50;;;11.10;;
37237;SDS011;23129;49.662;8.448;2022-11-20T02:13:01;28.27;;;13.52;;
37237;SDS011;23129;49.662;8.448;2022-11-20T02:15:47;26.38;;;13.00;;
37237;SDS011;23129;49.662;8.448;2022-11-20T02:18:18;30.25;;;14.40;;
37237;SDS011;23129;49.662;8.448;2022-11-20T02:20:49;29.33;;;13.23;;
37237;SDS011;23129;49.662;8.448;2022-11-20T02:25:55;17.65;;;10.55;;
37237;SDS011;23129;49.662;8.448;2022-11-20T02:28:25;27.75;;;13.75;;
37237;SDS011;23129;49.662;8.448;2022-11-20T02:30:54;22.15;;;10.88;;
37237;SDS011;23129;49.662;8.448;2022-11-20T02:33:23;26.05;;;12.32;;
37237;SDS011;23129;49.662;8.448;2022-11-20T02:35:51;25.83;;;13.23;;
37237;SDS011;23129;49.662;8.448;2022-11-20T02:38:20;24.00;;;12.68;;
37237;SDS011;23129;49.662;8.448;2022-11-20T02:40:48;26.15;;;13.90;;
37237;SDS011;23129;49.662;8.448;2022-11-20T02:43:22;21.42;;;11.70;;
37237;SDS011;23129;49.662;8.448;2022-11-20T02:45:50;28.42;;;12.35;;
37237;SDS011;23129;49.662;8.448;2022-11-20T02:48:19;23.33;;;11.70;;
37237;SDS011;23129;49.662;8.448;2022-11-20T02:50:50;22.27;;;11.93;;
37237;SDS011;23129;49.662;8.448;2022-11-20T02:53:19;25.73;;;12.85;;
37237;SDS011;23129;49.662;8.448;2022-11-20T02:55:47;26.75;;;12.65;;
37237;SDS011;23129;49.662;8.448;2022-11-20T02:58:16;26.98;;;13.07;;
37237;SDS011;23129;49.662;8.448;2022-11-20T03:00:46;24.42;;;13.50;;
37237;SDS011;23129;49.662;8.448;2022-11-20T03:03:14;27.67;;;13.23;;
37237;SDS011;23129;49.662;8.448;2022-11-20T03:05:43;27.90;;;12.98;;
37237;SDS011;23129;49.662;8.448;2022-11-20T03:08:11;29.42;;;13.15;;
37237;SDS011;23129;49.662;8.448;2022-11-20T03:10:40;38.40;;;16.23;;
37237;SDS011;23129;49.662;8.448;2022-11-20T03:13:09;21.10;;;11.95;;
37237;SDS011;23129;49.662;8.448;2022-11-20T03:15:37;32.35;;;13.60;;
37237;SDS011;23129;49.662;8.448;2022-11-20T03:18:07;25.38;;;12.02;;
37237;SDS011;23129;49.662;8.448;2022-11-20T03:20:35;27.10;;;12.60;;
37237;SDS011;23129;49.662;8.448;2022-11-20T03:23:04;24.98;;;13.30;;
37237;SDS011;23129;49.662;8.448;2022-11-20T03:25:32;27.83;;;12.98;;
37237;SDS011;23129;49.662;8.448;2022-11-20T03:28:01;26.83;;;13.13;;
37237;SDS011;23129;49.662;8.448;2022-11-20T03:30:30;28.98;;;12.65;;
37237;SDS011;23129;49.662;8.448;2022-11-20T03:32:58;24.75;;;11.82;;
37237;SDS011;23129;49.662;8.448;2022-11-20T03:35:28;22.05;;;11.68;;
37237;SDS011;23129;49.662;8.448;2022-11-20T03:37:57;26.48;;;13.35;;
37237;SDS011;23129;49.662;8.448;2022-11-20T03:40:25;24.10;;;12.75;;
37237;SDS011;23129;49.662;8.448;2022-11-20T03:42:54;23.42;;;12.13;;
37237;SDS011;23129;49.662;8.448;2022-11-20T03:45:22;20.08;;;10.43;;
37237;SDS011;23129;49.662;8.448;2022-11-20T03:47:50;27.25;;;12.82;;
37237;SDS011;23129;49.662;8.448;2022-11-20T03:50:19;34.35;;;14.75;;
37237;SDS011;23129;49.662;8.448;2022-11-20T03:52:49;26.95;;;12.98;;
37237;SDS011;23129;49.662;8.448;2022-11-20T03:55:17;30.50;;;13.55;;
37237;SDS011;23129;49.662;8.448;2022-11-20T03:57:45;25.80;;;11.70;;
37237;SDS011;23129;49.662;8.448;2022-11-20T04:00:14;24.33;;;12.32;;
37237;SDS011;23129;49.662;8.448;2022-11-20T04:02:43;27.02;;;12.40;;
37237;SDS011;23129;49.662;8.448;2022-11-20T04:05:11;20.58;;;11.57;;
37237;SDS011;23129;49.662;8.448;2022-11-20T04:07:40;20.98;;;11.63;;
37237;SDS011;23129;49.662;8.448;2022-11-20T04:10:10;21.27;;;11.05;;
37237;SDS011;23129;49.662;8.448;2022-11-20T04:12:39;19.48;;;10.55;;
37237;SDS011;23129;49.662;8.448;2022-11-20T04:15:07;20.17;;;10.98;;
37237;SDS011;23129;49.662;8.448;2022-11-20T04:17:36;21.05;;;10.70;;
37237;SDS011;23129;49.662;8.448;2022-11-20T04:20:05;22.67;;;12.25;;
37237;SDS011;23129;49.662;8.448;2022-11-20T04:22:35;23.38;;;11.77;;
37237;SDS011;23129;49.662;8.448;2022-11-20T04:25:04;23.75;;;11.88;;
37237;SDS011;23129;49.662;8.448;2022-11-20T04:27:34;26.48;;;11.80;;
37237;SDS011;23129;49.662;8.448;2022-11-20T04:30:03;25.25;;;12.75;;
37237;SDS011;23129;49.662;8.448;2022-11-20T04:32:32;22.10;;;11.70;;
37237;SDS011;23129;49.662;8.448;2022-11-20T04:35:00;28.60;;;13.35;;
37237;SDS011;23129;49.662;8.448;2022-11-20T04:37:29;23.98;;;12.15;;
37237;SDS011;23129;49.662;8.448;2022-11-20T04:39:57;25.88;;;12.70;;
37237;SDS011;23129;49.662;8.448;2022-11-20T04:42:26;23.00;;;12.60;;
37237;SDS011;23129;49.662;8.448;2022-11-20T04:44:58;21.85;;;11.88;;
37237;SDS011;23129;49.662;8.448;2022-11-20T04:47:27;21.88;;;11.65;;
37237;SDS011;23129;49.662;8.448;2022-11-20T04:49:55;22.05;;;11.93;;
37237;SDS011;23129;49.662;8.448;2022-11-20T04:52:24;24.45;;;13.57;;
37237;SDS011;23129;49.662;8.448;2022-11-20T04:54:53;28.77;;;13.77;;
37237;SDS011;23129;49.662;8.448;2022-11-20T04:57:21;27.30;;;12.25;;
37237;SDS011;23129;49.662;8.448;2022-11-20T04:59:50;23.52;;;13.05;;
37237;SDS011;23129;49.662;8.448;2022-11-20T05:02:20;23.02;;;11.30;;
37237;SDS011;23129;49.662;8.448;2022-11-20T05:04:48;28.52;;;13.10;;
37237;SDS011;23129;49.662;8.448;2022-11-20T05:07:17;29.90;;;12.40;;
37237;SDS011;23129;49.662;8.448;2022-11-20T05:09:46;29.45;;;13.93;;
37237;SDS011;23129;49.662;8.448;2022-11-20T05:12:14;25.58;;;12.95;;
37237;SDS011;23129;49.662;8.448;2022-11-20T05:14:43;25.25;;;12.30;;
37237;SDS011;23129;49.662;8.448;2022-11-20T05:17:11;28.05;;;12.70;;
37237;SDS011;23129;49.662;8.448;2022-11-20T05:19:41;29.27;;;14.13;;
37237;SDS011;23129;49.662;8.448;2022-11-20T05:22:13;31.30;;;13.85;;
37237;SDS011;23129;49.662;8.448;2022-11-20T05:24:42;25.77;;;12.15;;
37237;SDS011;23129;49.662;8.448;2022-11-20T05:27:10;32.33;;;13.32;;
37237;SDS011;23129;49.662;8.448;2022-11-20T05:29:39;24.73;;;12.63;;
37237;SDS011;23129;49.662;8.448;2022-11-20T05:32:08;19.98;;;11.25;;
37237;SDS011;23129;49.662;8.448;2022-11-20T05:34:36;26.50;;;12.65;;
37237;SDS011;23129;49.662;8.448;2022-11-20T05:37:06;28.27;;;12.55;;
37237;SDS011;23129;49.662;8.448;2022-11-20T05:39:34;28.23;;;12.85;;
37237;SDS011;23129;49.662;8.448;2022-11-20T05:42:03;31.88;;;13.55;;
37237;SDS011;23129;49.662;8.448;2022-11-20T05:44:49;29.05;;;14.13;;
37237;SDS011;23129;49.662;8.448;2022-11-20T05:47:18;38.15;;;14.32;;
37237;SDS011;23129;49.662;8.448;2022-11-20T05:49:46;32.10;;;12.80;;
37237;SDS011;23129;49.662;8.448;2022-11-20T05:52:16;33.97;;;12.68;;
37237;SDS011;23129;49.662;8.448;2022-11-20T05:54:44;29.52;;;13.32;;
37237;SDS011;23129;49.662;8.448;2022-11-20T05:57:13;25.77;;;12.95;;
37237;SDS011;23129;49.662;8.448;2022-11-20T05:59:41;28.10;;;12.70;;
37237;SDS011;23129;49.662;8.448;2022-11-20T06:02:10;34.28;;;14.48;;
37237;SDS011;23129;49.662;8.448;2022-11-20T06:04:39;27.65;;;11.80;;
37237;SDS011;23129;49.662;8.448;2022-11-20T06:07:07;27.92;;;13.23;;
37237;SDS011;23129;49.662;8.448;2022-11-20T06:09:38;32.65;;;13.05;;
37237;SDS011;23129;49.662;8.448;2022-11-20T06:12:06;29.05;;;13.52;;
37237;SDS011;23129;49.662;8.448;2022-11-20T06:14:34;30.02;;;11.88;;
37237;SDS011;23129;49.662;8.448;2022-11-20T06:17:03;26.08;;;12.60;;
37237;SDS011;23129;49.662;8.448;2022-11-20T06:19:31;26.80;;;12.70;;
37237;SDS011;23129;49.662;8.448;2022-11-20T06:22:00;23.00;;;12.05;;
37237;SDS011;23129;49.662;8.448;2022-11-20T06:24:28;32.80;;;13.25;;
37237;SDS011;23129;49.662;8.448;2022-11-20T06:26:58;32.15;;;13.07;;
37237;SDS011;23129;49.662;8.448;2022-11-20T06:29:26;32.15;;;13.55;;
37237;SDS011;23129;49.662;8.448;2022-11-20T06:31:59;27.40;;;12.05;;
37237;SDS011;23129;49.662;8.448;2022-11-20T06:34:28;30.50;;;13.65;;
37237;SDS011;23129;49.662;8.448;2022-11-20T06:36:56;32.88;;;13.25;;
37237;SDS011;23129;49.662;8.448;2022-11-20T06:39:24;35.58;;;13.98;;
37237;SDS011;23129;49.662;8.448;2022-11-20T06:41:53;34.50;;;13.77;;
37237;SDS011;23129;49.662;8.448;2022-11-20T06:44:26;31.77;;;13.68;;
37237;SDS011;23129;49.662;8.448;2022-11-20T06:46:54;28.65;;;13.50;;
37237;SDS011;23129;49.662;8.448;2022-11-20T06:49:22;27.45;;;12.63;;
37237;SDS011;23129;49.662;8.448;2022-11-20T06:51:51;32.00;;;14.70;;
37237;SDS011;23129;49.662;8.448;2022-11-20T06:54:20;33.90;;;14.07;;
37237;SDS011;23129;49.662;8.448;2022-11-20T06:56:48;25.50;;;11.98;;
37237;SDS011;23129;49.662;8.448;2022-11-20T06:59:17;32.60;;;13.90;;
37237;SDS011;23129;49.662;8.448;2022-11-20T07:01:47;29.90;;;13.63;;
37237;SDS011;23129;49.662;8.448;2022-11-20T07:04:16;30.60;;;14.07;;
37237;SDS011;23129;49.662;8.448;2022-11-20T07:06:44;36.42;;;14.70;;
37237;SDS011;23129;49.662;8.448;2022-11-20T07:09:13;30.15;;;12.15;;
37237;SDS011;23129;49.662;8.448;2022-11-20T07:11:42;29.95;;;11.93;;
37237;SDS011;23129;49.662;8.448;2022-11-20T07:14:10;29.77;;;12.93;;
37237;SDS011;23129;49.662;8.448;2022-11-20T07:16:39;33.42;;;12.85;;
37237;SDS011;23129;49.662;8.448;2022-11-20T07:19:09;28.33;;;12.60;;
37237;SDS011;23129;49.662;8.448;2022-11-20T07:21:38;32.35;;;13.45;;
37237;SDS011;23129;49.662;8.448;2022-11-20T07:24:06;31.58;;;12.93;;
37237;SDS011;23129;49.662;8.448;2022-11-20T07:26:35;33.58;;;12.00;;
37237;SDS011;23129;49.662;8.448;2022-11-20T07:29:03;31.65;;;13.82;;
37237;SDS011;23129;49.662;8.448;2022-11-20T07:31:32;30.73;;;12.38;;
37237;SDS011;23129;49.662;8.448;2022-11-20T07:34:00;24.90;;;11.65;;
37237;SDS011;23129;49.662;8.448;2022-11-20T07:36:30;33.60;;;13.15;;
37237;SDS011;23129;49.662;8.448;2022-11-20T07:38:59;32.50;;;13.00;;
37237;SDS011;23129;49.662;8.448;2022-11-20T07:41:27;30.02;;;13.30;;
37237;SDS011;23129;49.662;8.448;2022-11-20T07:43:56;36.03;;;12.75;;
37237;SDS011;23129;49.662;8.448;2022-11-20T07:46:24;34.03;;;14.15;;
37237;SDS011;23129;49.662;8.448;2022-11-20T07:48:53;33.58;;;12.73;;
37237;SDS011;23129;49.662;8.448;2022-11-20T07:51:21;24.92;;;12.05;;
37237;SDS011;23129;49.662;8.448;2022-11-20T07:53:51;28.63;;;12.38;;
37237;SDS011;23129;49.662;8.448;2022-11-20T07:56:20;32.13;;;12.70;;
37237;SDS011;23129;49.662;8.448;2022-11-20T07:58:48;35.13;;;13.57;;
37237;SDS011;23129;49.662;8.448;2022-11-20T08:01:17;33.90;;;14.10;;
37237;SDS011;23129;49.662;8.448;2022-11-20T08:03:45;23.88;;;12.50;;
37237;SDS011;23129;49.662;8.448;2022-11-20T08:06:14;33.45;;;14.35;;
37237;SDS011;23129;49.662;8.448;2022-11-20T08:08:42;30.17;;;13.57;;
37237;SDS011;23129;49.662;8.448;2022-11-20T08:11:12;29.27;;;14.05;;
37237;SDS011;23129;49.662;8.448;2022-11-20T08:13:58;32.40;;;12.52;;
37237;SDS011;23129;49.662;8.448;2022-11-20T08:16:42;23.87;;;13.00;;
37237;SDS011;23129;49.662;8.448;2022-11-20T08:19:14;37.83;;;14.77;;
37237;SDS011;23129;49.662;8.448;2022-11-20T08:21:45;29.63;;;14.60;;
37237;SDS011;23129;49.662;8.448;2022-11-20T08:24:13;28.50;;;14.68;;
37237;SDS011;23129;49.662;8.448;2022-11-20T08:26:43;37.08;;;16.95;;
37237;SDS011;23129;49.662;8.448;2022-11-20T08:29:12;29.95;;;14.90;;
37237;SDS011;23129;49.662;8.448;2022-11-20T08:31:40;39.92;;;18.00;;
37237;SDS011;23129;49.662;8.448;2022-11-20T08:34:08;37.50;;;16.23;;
37237;SDS011;23129;49.662;8.448;2022-11-20T08:36:44;32.15;;;15.13;;
37237;SDS011;23129;49.662;8.448;2022-11-20T08:39:12;39.17;;;17.60;;
37237;SDS011;23129;49.662;8.448;2022-11-20T08:41:41;34.35;;;16.52;;
37237;SDS011;23129;49.662;8.448;2022-11-20T08:44:11;41.45;;;17.35;;
37237;SDS011;23129;49.662;8.448;2022-11-20T08:46:40;35.17;;;16.65;;
37237;SDS011;23129;49.662;8.448;2022-11-20T08:49:12;38.15;;;17.10;;
37237;SDS011;23129;49.662;8.448;2022-11-20T08:51:41;38.17;;;18.55;;
37237;SDS011;23129;49.662;8.448;2022-11-20T08:54:09;35.45;;;16.85;;
37237;SDS011;23129;49.662;8.448;2022-11-20T08:56:38;32.00;;;15.80;;
37237;SDS011;23129;49.662;8.448;2022-11-20T08:59:08;35.80;;;16.60;;
37237;SDS011;23129;49.662;8.448;2022-11-20T09:01:56;31.30;;;13.82;;
37237;SDS011;23129;49.662;8.448;2022-11-20T09:04:24;30.75;;;15.50;;
37237;SDS011;23129;49.662;8.448;2022-11-20T09:06:53;38.30;;;14.45;;
37237;SDS011;23129;49.662;8.448;2022-11-20T09:09:21;30.05;;;14.85;;
37237;SDS011;23129;49.662;8.448;2022-11-20T09:11:50;31.20;;;15.00;;
37237;SDS011;23129;49.662;8.448;2022-11-20T09:14:20;31.65;;;15.77;;
37237;SDS011;23129;49.662;8.448;2022-11-20T09:16:51;33.78;;;15.30;;
37237;SDS011;23129;49.662;8.448;2022-11-20T09:19:19;37.42;;;14.82;;
37237;SDS011;23129;49.662;8.448;2022-11-20T09:22:03;28.40;;;13.68;;
37237;SDS011;23129;49.662;8.448;2022-11-20T09:24:31;32.72;;;14.57;;
37237;SDS011;23129;49.662;8.448;2022-11-20T09:27:04;34.83;;;15.02;;
37237;SDS011;23129;49.662;8.448;2022-11-20T09:29:33;31.83;;;16.10;;
37237;SDS011;23129;49.662;8.448;2022-11-20T09:32:02;28.63;;;14.60;;
37237;SDS011;23129;49.662;8.448;2022-11-20T09:34:31;30.83;;;13.68;;
37237;SDS011;23129;49.662;8.448;2022-11-20T09:36:59;32.05;;;15.05;;
37237;SDS011;23129;49.662;8.448;2022-11-20T09:39:33;22.75;;;11.98;;
37237;SDS011;23129;49.662;8.448;2022-11-20T09:42:09;32.08;;;13.63;;
37237;SDS011;23129;49.662;8.448;2022-11-20T09:45:14;27.70;;;12.57;;
37237;SDS011;23129;49.662;8.448;2022-11-20T09:47:53;30.13;;;13.25;;
37237;SDS011;23129;49.662;8.448;2022-11-20T09:50:46;25.40;;;11.63;;
37237;SDS011;23129;49.662;8.448;2022-11-20T09:53:23;26.63;;;13.07;;
37237;SDS011;23129;49.662;8.448;2022-11-20T09:56:03;32.70;;;15.27;;
37237;SDS011;23129;49.662;8.448;2022-11-20T09:58:33;33.58;;;15.27;;
37237;SDS011;23129;49.662;8.448;2022-11-20T10:01:11;30.63;;;16.25;;
37237;SDS011;23129;49.662;8.448;2022-11-20T10:06:21;22.95;;;11.23;;
37237;SDS011;23129;49.662;8.448;2022-11-20T10:09:00;32.65;;;14.38;;
37237;SDS011;23129;49.662;8.448;2022-11-20T10:11:43;24.65;;;12.15;;
37237;SDS011;23129;49.662;8.448;2022-11-20T10:14:23;27.25;;;13.48;;
37237;SDS011;23129;49.662;8.448;2022-11-20T10:17:03;27.67;;;14.93;;
37237;SDS011;23129;49.662;8.448;2022-11-20T10:19:47;35.78;;;14.40;;
37237;SDS011;23129;49.662;8.448;2022-11-20T10:22:36;34.90;;;15.98;;
37237;SDS011;23129;49.662;8.448;2022-11-20T10:25:15;27.83;;;14.07;;
37237;SDS011;23129;49.662;8.448;2022-11-20T10:27:50;39.05;;;16.98;;
37237;SDS011;23129;49.662;8.448;2022-11-20T10:30:50;26.25;;;13.98;;
37237;SDS011;23129;49.662;8.448;2022-11-20T10:33:34;36.22;;;15.60;;
37237;SDS011;23129;49.662;8.448;2022-11-20T10:36:28;28.65;;;14.80;;
37237;SDS011;23129;49.662;8.448;2022-11-20T10:39:13;27.88;;;12.98;;
37237;SDS011;23129;49.662;8.448;2022-11-20T10:41:54;46.10;;;18.13;;
37237;SDS011;23129;49.662;8.448;2022-11-20T10:44:26;48.22;;;19.23;;
37237;SDS011;23129;49.662;8.448;2022-11-20T10:47:20;33.58;;;14.55;;
37237;SDS011;23129;49.662;8.448;2022-11-20T10:49:51;34.55;;;15.93;;
37237;SDS011;23129;49.662;8.448;2022-11-20T10:52:24;31.50;;;15.43;;
37237;SDS011;23129;49.662;8.448;2022-11-20T10:55:07;40.30;;;16.77;;
37237;SDS011;23129;49.662;8.448;2022-11-20T10:57:52;37.65;;;17.00;;
37237;SDS011;23129;49.662;8.448;2022-11-20T11:00:30;35.63;;;17.35;;
37237;SDS011;23129;49.662;8.448;2022-11-20T11:02:58;34.30;;;14.82;;
37237;SDS011;23129;49.662;8.448;2022-11-20T11:05:36;42.47;;;17.25;;
37237;SDS011;23129;49.662;8.448;2022-11-20T11:08:10;40.00;;;18.02;;
37237;SDS011;23129;49.662;8.448;2022-11-20T11:10:43;47.78;;;18.55;;
37237;SDS011;23129;49.662;8.448;2022-11-20T11:13:19;34.83;;;15.35;;
37237;SDS011;23129;49.662;8.448;2022-11-20T11:15:49;34.50;;;15.23;;
37237;SDS011;23129;49.662;8.448;2022-11-20T11:18:24;40.03;;;17.70;;
37237;SDS011;23129;49.662;8.448;2022-11-20T11:20:58;40.83;;;17.02;;
37237;SDS011;23129;49.662;8.448;2022-11-20T11:23:31;29.95;;;15.65;;
37237;SDS011;23129;49.662;8.448;2022-11-20T11:26:03;33.08;;;15.27;;
37237;SDS011;23129;49.662;8.448;2022-11-20T11:28:52;33.38;;;15.88;;
37237;SDS011;23129;49.662;8.448;2022-11-20T11:31:25;41.55;;;15.57;;
37237;SDS011;23129;49.662;8.448;2022-11-20T11:34:04;39.85;;;17.35;;
37237;SDS011;23129;49.662;8.448;2022-11-20T11:36:34;38.65;;;18.23;;
37237;SDS011;23129;49.662;8.448;2022-11-20T11:39:04;35.65;;;17.65;;
37237;SDS011;23129;49.662;8.448;2022-11-20T11:41:38;33.40;;;14.80;;
37237;SDS011;23129;49.662;8.448;2022-11-20T11:44:15;41.58;;;18.65;;
37237;SDS011;23129;49.662;8.448;2022-11-20T11:47:05;34.75;;;15.48;;
37237;SDS011;23129;49.662;8.448;2022-11-20T11:49:39;38.67;;;16.75;;
37237;SDS011;23129;49.662;8.448;2022-11-20T11:52:10;31.38;;;13.95;;
37237;SDS011;23129;49.662;8.448;2022-11-20T11:54:45;34.30;;;16.35;;
37237;SDS011;23129;49.662;8.448;2022-11-20T11:57:21;32.88;;;14.50;;
37237;SDS011;23129;49.662;8.448;2022-11-20T12:00:09;40.83;;;17.00;;
37237;SDS011;23129;49.662;8.448;2022-11-20T12:02:42;40.83;;;18.10;;
37237;SDS011;23129;49.662;8.448;2022-11-20T12:07:58;34.13;;;14.18;;
37237;SDS011;23129;49.662;8.448;2022-11-20T12:10:40;35.47;;;15.23;;
37237;SDS011;23129;49.662;8.448;2022-11-20T12:13:20;46.88;;;17.27;;
37237;SDS011;23129;49.662;8.448;2022-11-20T12:16:02;51.60;;;21.73;;
37237;SDS011;23129;49.662;8.448;2022-11-20T12:18:31;37.08;;;16.33;;
37237;SDS011;23129;49.662;8.448;2022-11-20T12:21:03;46.30;;;18.08;;
37237;SDS011;23129;49.662;8.448;2022-11-20T12:23:53;48.17;;;17.42;;
37237;SDS011;23129;49.662;8.448;2022-11-20T12:26:43;41.10;;;16.52;;
37237;SDS011;23129;49.662;8.448;2022-11-20T12:29:27;37.53;;;14.45;;
37237;SDS011;23129;49.662;8.448;2022-11-20T12:35:30;32.55;;;14.27;;
37237;SDS011;23129;49.662;8.448;2022-11-20T12:38:26;28.23;;;13.88;;
37237;SDS011;23129;49.662;8.448;2022-11-20T12:41:18;38.92;;;16.33;;
37237;SDS011;23129;49.662;8.448;2022-11-20T12:44:32;29.75;;;13.88;;
37237;SDS011;23129;49.662;8.448;2022-11-20T12:50:08;21.52;;;11.40;;
37237;SDS011;23129;49.662;8.448;2022-11-20T12:52:46;27.40;;;12.82;;
37237;SDS011;23129;49.662;8.448;2022-11-20T12:55:36;30.05;;;12.10;;
37237;SDS011;23129;49.662;8.448;2022-11-20T12:58:18;32.70;;;13.98;;
37237;SDS011;23129;49.662;8.448;2022-11-20T13:00:55;39.15;;;18.40;;
37237;SDS011;23129;49.662;8.448;2022-11-20T13:03:38;32.08;;;15.48;;
37237;SDS011;23129;49.662;8.448;2022-11-20T13:06:15;33.40;;;15.02;;
37237;SDS011;23129;49.662;8.448;2022-11-20T13:08:47;32.50;;;15.50;;
37237;SDS011;23129;49.662;8.448;2022-11-20T13:11:21;38.00;;;15.25;;
37237;SDS011;23129;49.662;8.448;2022-11-20T13:14:12;32.97;;;15.23;;
37237;SDS011;23129;49.662;8.448;2022-11-20T13:16:55;32.28;;;14.32;;
37237;SDS011;23129;49.662;8.448;2022-11-20T13:19:31;37.60;;;17.80;;
37237;SDS011;23129;49.662;8.448;2022-11-20T13:22:01;34.72;;;16.10;;
37237;SDS011;23129;49.662;8.448;2022-11-20T13:24:29;41.00;;;14.60;;
37237;SDS011;23129;49.662;8.448;2022-11-20T13:27:00;35.95;;;14.82;;
37237;SDS011;23129;49.662;8.448;2022-11-20T13:29:47;39.97;;;17.15;;
37237;SDS011;23129;49.662;8.448;2022-11-20T13:32:30;42.47;;;16.25;;
37237;SDS011;23129;49.662;8.448;2022-11-20T13:34:59;53.00;;;20.77;;
37237;SDS011;23129;49.662;8.448;2022-11-20T13:37:30;41.53;;;17.50;;
37237;SDS011;23129;49.662;8.448;2022-11-20T13:43:01;45.65;;;18.50;;
37237;SDS011;23129;49.662;8.448;2022-11-20T13:45:40;48.15;;;19.35;;
37237;SDS011;23129;49.662;8.448;2022-11-20T13:48:18;54.58;;;19.73;;
37237;SDS011;23129;49.662;8.448;2022-11-20T13:50:54;37.80;;;16.08;;
37237;SDS011;23129;49.662;8.448;2022-11-20T13:53:41;28.25;;;13.20;;
37237;SDS011;23129;49.662;8.448;2022-11-20T13:56:34;37.70;;;17.25;;
37237;SDS011;23129;49.662;8.448;2022-11-20T13:59:19;38.75;;;16.98;;
37237;SDS011;23129;49.662;8.448;2022-11-20T14:02:07;42.70;;;18.10;;
37237;SDS011;23129;49.662;8.448;2022-11-20T14:04:42;43.15;;;17.33;;
37237;SDS011;23129;49.662;8.448;2022-11-20T14:07:14;31.08;;;14.60;;
37237;SDS011;23129;49.662;8.448;2022-11-20T14:09:49;37.63;;;14.80;;
37237;SDS011;23129;49.662;8.448;2022-11-20T14:12:20;30.38;;;14.35;;
37237;SDS011;23129;49.662;8.448;2022-11-20T14:14:54;31.45;;;15.07;;
37237;SDS011;23129;49.662;8.448;2022-11-20T14:17:29;38.28;;;16.63;;
37237;SDS011;23129;49.662;8.448;2022-11-20T14:20:01;39.60;;;14.68;;
37237;SDS011;23129;49.662;8.448;2022-11-20T14:22:33;35.78;;;14.00;;
37237;SDS011;23129;49.662;8.448;2022-11-20T14:25:05;36.40;;;13.30;;
37237;SDS011;23129;49.662;8.448;2022-11-20T14:27:49;29.08;;;13.10;;
37237;SDS011;23129;49.662;8.448;2022-11-20T14:30:21;36.53;;;16.50;;
37237;SDS011;23129;49.662;8.448;2022-11-20T14:32:54;25.42;;;11.65;;
37237;SDS011;23129;49.662;8.448;2022-11-20T14:35:28;37.35;;;13.40;;
37237;SDS011;23129;49.662;8.448;2022-11-20T14:38:01;28.27;;;12.87;;
37237;SDS011;23129;49.662;8.448;2022-11-20T14:40:32;28.85;;;13.05;;
37237;SDS011;23129;49.662;8.448;2022-11-20T14:43:14;27.65;;;11.13;;
37237;SDS011;23129;49.662;8.448;2022-11-20T14:45:48;27.23;;;9.80;;
37237;SDS011;23129;49.662;8.448;2022-11-20T14:48:27;30.65;;;9.77;;
37237;SDS011;23129;49.662;8.448;2022-11-20T14:50:59;16.38;;;8.63;;
37237;SDS011;23129;49.662;8.448;2022-11-20T14:53:27;14.85;;;8.50;;
37237;SDS011;23129;49.662;8.448;2022-11-20T14:55:57;21.88;;;6.05;;
37237;SDS011;23129;49.662;8.448;2022-11-20T14:58:28;14.38;;;5.32;;
37237;SDS011;23129;49.662;8.448;2022-11-20T15:01:00;12.95;;;4.63;;
37237;SDS011;23129;49.662;8.448;2022-11-20T15:03:32;18.77;;;4.65;;
37237;SDS011;23129;49.662;8.448;2022-11-20T15:06:02;16.77;;;3.95;;
37237;SDS011;23129;49.662;8.448;2022-11-20T15:08:31;7.38;;;2.60;;
37237;SDS011;23129;49.662;8.448;2022-11-20T15:11:01;2.55;;;2.03;;